Time;durP1;ratioP1;P1;durP2;ratioP2;P2;SDS_P1;SDS_P2;PMS_P1;PMS_P2;Temp;Humidity;BMP_temperature;BMP_pressure;BME280_temperature;BME280_humidity;BME280_pressure;Samples;Min_cycle;Max_cycle;Signal;HPM_P1;HPM_P2
2022/06/29 00:00:54;;;;;;;2.83;2.60;;;;;;;;;;4957140;28;20211;-76
2022/06/29 00:03:24;;;;;;;3.17;2.70;;;;;;;;;;4957838;29;20210;-76
2022/06/29 00:05:53;;;;;;;2.80;2.60;;;;;;;;;;4957588;28;20233;-76
2022/06/29 00:08:21;;;;;;;2.80;2.60;;;;;;;;;;4958014;29;20608;-76
2022/06/29 00:10:49;;;;;;;2.90;2.40;;;;;;;;;;4957536;29;20614;-76
2022/06/29 00:13:18;;;;;;;2.90;2.70;;;;;;;;;;4957649;29;20203;-76
2022/06/29 00:15:47;;;;;;;3.23;2.93;;;;;;;;;;4956609;29;20234;-76
2022/06/29 00:18:15;;;;;;;4.37;3.00;;;;;;;;;;4957222;29;20265;-76
2022/06/29 00:20:45;;;;;;;3.17;2.70;;;;;;;;;;4957338;28;20261;-75
2022/06/29 00:23:13;;;;;;;3.13;2.70;;;;;;;;;;4957811;28;20234;-76
2022/06/29 00:25:42;;;;;;;2.90;2.70;;;;;;;;;;4957065;28;20230;-76
2022/06/29 00:28:11;;;;;;;2.97;2.70;;;;;;;;;;4956897;28;20253;-76
2022/06/29 00:30:39;;;;;;;3.20;2.50;;;;;;;;;;4956900;28;20559;-76
2022/06/29 00:33:08;;;;;;;3.30;3.00;;;;;;;;;;4957047;28;20297;-76
2022/06/29 00:35:36;;;;;;;3.20;3.00;;;;;;;;;;4956912;29;20297;-76
2022/06/29 00:38:06;;;;;;;3.90;3.20;;;;;;;;;;4956793;28;20227;-76
2022/06/29 00:40:34;;;;;;;3.10;2.80;;;;;;;;;;4957317;28;20686;-76
2022/06/29 00:43:03;;;;;;;3.00;2.70;;;;;;;;;;4957068;28;20265;-76
2022/06/29 00:45:31;;;;;;;2.80;2.60;;;;;;;;;;4956125;28;20226;-76
2022/06/29 00:48:00;;;;;;;2.70;2.50;;;;;;;;;;4956827;28;20268;-76
2022/06/29 00:50:30;;;;;;;3.00;2.80;;;;;;;;;;4956482;28;20218;-76
2022/06/29 00:53:02;;;;;;;3.03;2.83;;;;;;;;;;4956687;28;20209;-76
2022/06/29 00:55:32;;;;;;;4.20;2.90;;;;;;;;;;4956775;28;20779;-76
2022/06/29 00:58:03;;;;;;;3.33;3.00;;;;;;;;;;4956038;28;20238;-76
2022/06/29 01:00:32;;;;;;;3.83;2.90;;;;;;;;;;4956678;29;20203;-76
2022/06/29 01:03:00;;;;;;;3.10;2.90;;;;;;;;;;4956669;28;20206;-75
2022/06/29 01:05:29;;;;;;;3.60;3.23;;;;;;;;;;4956843;28;20230;-76
2022/06/29 01:07:58;;;;;;;3.40;3.10;;;;;;;;;;4956923;28;20678;-76
2022/06/29 01:10:27;;;;;;;3.60;3.30;;;;;;;;;;4957101;29;20592;-76
2022/06/29 01:12:57;;;;;;;3.37;3.03;;;;;;;;;;4955782;29;20264;-76
2022/06/29 01:15:25;;;;;;;3.50;3.20;;;;;;;;;;4956541;29;20680;-76
2022/06/29 01:17:54;;;;;;;3.70;3.10;;;;;;;;;;4956513;29;20257;-76
2022/06/29 01:20:23;;;;;;;4.33;3.27;;;;;;;;;;4955248;29;20214;-76
2022/06/29 01:22:52;;;;;;;3.50;3.20;;;;;;;;;;4956682;28;20210;-76
2022/06/29 01:25:21;;;;;;;3.97;3.57;;;;;;;;;;4955868;28;20719;-76
2022/06/29 01:27:49;;;;;;;4.87;3.50;;;;;;;;;;4956609;28;20207;-76
2022/06/29 01:30:18;;;;;;;3.50;3.20;;;;;;;;;;4955951;28;20675;-76
2022/06/29 01:32:46;;;;;;;3.63;3.37;;;;;;;;;;4956253;28;20690;-76
2022/06/29 01:35:16;;;;;;;4.37;3.17;;;;;;;;;;4955901;28;20285;-76
2022/06/29 01:37:44;;;;;;;3.40;3.10;;;;;;;;;;4955967;28;20218;-75
2022/06/29 01:40:14;;;;;;;3.23;3.03;;;;;;;;;;4954443;28;20210;-76
2022/06/29 01:42:43;;;;;;;5.33;3.10;;;;;;;;;;4955774;28;20214;-76
2022/06/29 01:45:11;;;;;;;3.50;3.20;;;;;;;;;;4955802;29;20233;-76
2022/06/29 01:47:40;;;;;;;3.60;3.30;;;;;;;;;;4955754;28;20203;-76
2022/06/29 01:50:09;;;;;;;3.83;3.30;;;;;;;;;;4956100;28;20218;-76
2022/06/29 01:52:37;;;;;;;3.73;3.43;;;;;;;;;;4955597;28;20254;-76
2022/06/29 01:55:06;;;;;;;4.03;3.50;;;;;;;;;;4954791;28;20222;-76
2022/06/29 01:57:36;;;;;;;4.33;3.60;;;;;;;;;;4955447;28;20227;-76
2022/06/29 02:00:05;;;;;;;3.60;3.30;;;;;;;;;;4955950;28;20257;-76
2022/06/29 02:02:33;;;;;;;3.80;3.50;;;;;;;;;;4955702;28;20273;-75
2022/06/29 02:05:01;;;;;;;3.80;3.50;;;;;;;;;;4955255;28;20226;-76
2022/06/29 02:07:30;;;;;;;3.57;3.27;;;;;;;;;;4955439;28;20202;-77
2022/06/29 02:09:59;;;;;;;4.00;3.60;;;;;;;;;;4954577;28;20668;-77
2022/06/29 02:12:27;;;;;;;3.87;3.57;;;;;;;;;;4955492;28;20298;-76
2022/06/29 02:14:58;;;;;;;3.90;3.53;;;;;;;;;;4955336;28;20227;-76
2022/06/29 02:17:26;;;;;;;4.47;3.57;;;;;;;;;;4955196;29;20222;-76
2022/06/29 02:19:55;;;;;;;3.90;3.60;;;;;;;;;;4956278;28;20218;-76
2022/06/29 02:22:23;;;;;;;5.13;3.57;;;;;;;;;;4955756;28;20210;-76
2022/06/29 02:24:51;;;;;;;4.03;3.67;;;;;;;;;;4954115;28;20226;-77
2022/06/29 02:27:20;;;;;;;4.17;3.60;;;;;;;;;;4955661;28;20206;-76
2022/06/29 02:29:48;;;;;;;3.57;3.27;;;;;;;;;;4955383;28;20631;-76
2022/06/29 02:35:04;;;;;;;4.37;3.93;;;;;;;;;;4955179;29;20645;-76
2022/06/29 02:37:33;;;;;;;4.20;3.80;;;;;;;;;;4955115;28;20668;-76
2022/06/29 02:40:01;;;;;;;6.93;3.93;;;;;;;;;;4954643;29;20259;-76
2022/06/29 02:42:30;;;;;;;4.67;4.20;;;;;;;;;;4955311;28;20210;-76
2022/06/29 02:45:18;;;;;;;5.27;4.10;;;;;;;;;;4954812;29;20593;-76
2022/06/29 02:47:51;;;;;;;4.73;4.33;;;;;;;;;;4955391;29;20226;-76
2022/06/29 02:50:19;;;;;;;5.23;4.13;;;;;;;;;;4954356;28;20222;-76
2022/06/29 02:52:48;;;;;;;6.80;4.13;;;;;;;;;;4958974;28;20210;-76
2022/06/29 02:55:16;;;;;;;4.50;4.20;;;;;;;;;;4958887;28;20770;-76
2022/06/29 02:57:45;;;;;;;5.83;4.60;;;;;;;;;;4958533;28;20203;-76
2022/06/29 03:00:13;;;;;;;4.17;3.87;;;;;;;;;;4958683;28;20221;-76
2022/06/29 03:02:42;;;;;;;4.90;4.40;;;;;;;;;;4959243;28;20253;-76
2022/06/29 03:05:12;;;;;;;5.30;3.93;;;;;;;;;;4957988;28;20289;-76
2022/06/29 03:07:40;;;;;;;4.80;4.40;;;;;;;;;;4958716;29;20211;-76
2022/06/29 03:10:09;;;;;;;4.47;3.97;;;;;;;;;;4958495;29;20229;-76
2022/06/29 03:12:38;;;;;;;4.63;4.27;;;;;;;;;;4958491;29;20273;-76
2022/06/29 03:15:07;;;;;;;4.97;3.90;;;;;;;;;;4957429;28;20230;-76
2022/06/29 03:17:35;;;;;;;7.57;4.30;;;;;;;;;;4958608;28;20558;-76
2022/06/29 03:20:05;;;;;;;4.17;3.87;;;;;;;;;;4958272;29;20210;-76
2022/06/29 03:22:35;;;;;;;4.30;3.90;;;;;;;;;;4958366;28;20631;-76
2022/06/29 03:25:04;;;;;;;6.60;4.40;;;;;;;;;;4958225;28;20253;-76
2022/06/29 03:27:33;;;;;;;4.80;4.40;;;;;;;;;;4957534;28;20265;-76
2022/06/29 03:30:01;;;;;;;5.53;4.40;;;;;;;;;;4958382;28;20715;-76
2022/06/29 03:32:30;;;;;;;4.70;4.30;;;;;;;;;;4958181;28;20207;-76
2022/06/29 03:34:58;;;;;;;5.40;4.47;;;;;;;;;;4957868;28;20569;-76
2022/06/29 03:37:27;;;;;;;4.90;4.37;;;;;;;;;;4958077;28;20209;-76
2022/06/29 03:39:56;;;;;;;7.73;4.60;;;;;;;;;;4957930;28;20226;-76
2022/06/29 03:42:25;;;;;;;5.17;4.63;;;;;;;;;;4957175;28;20207;-76
2022/06/29 03:44:54;;;;;;;6.30;4.60;;;;;;;;;;4957554;28;20286;-77
2022/06/29 03:47:25;;;;;;;5.17;4.70;;;;;;;;;;4957969;29;20663;-76
2022/06/29 03:49:53;;;;;;;5.33;4.90;;;;;;;;;;4957733;28;20219;-76
2022/06/29 03:52:22;;;;;;;7.07;4.67;;;;;;;;;;4958031;28;20719;-76
2022/06/29 03:54:50;;;;;;;4.90;4.40;;;;;;;;;;4957921;29;20226;-76
2022/06/29 03:57:20;;;;;;;5.00;4.50;;;;;;;;;;4957129;28;20648;-76
2022/06/29 03:59:49;;;;;;;6.10;4.70;;;;;;;;;;4957616;28;20572;-76
2022/06/29 04:02:17;;;;;;;7.67;4.80;;;;;;;;;;4956961;28;20245;-76
2022/06/29 04:04:46;;;;;;;9.13;5.33;;;;;;;;;;4957561;28;20301;-76
2022/06/29 04:07:14;;;;;;;9.83;4.73;;;;;;;;;;4957536;28;20207;-76
2022/06/29 04:09:43;;;;;;;5.37;4.87;;;;;;;;;;4957671;29;20571;-76
2022/06/29 04:12:11;;;;;;;6.47;5.07;;;;;;;;;;4956962;28;20209;-76
2022/06/29 04:14:41;;;;;;;5.57;5.10;;;;;;;;;;4957165;28;20235;-76
2022/06/29 04:17:10;;;;;;;8.93;5.47;;;;;;;;;;4957019;28;20206;-76
2022/06/29 04:19:38;;;;;;;6.17;4.80;;;;;;;;;;4957552;28;20238;-76
2022/06/29 04:22:06;;;;;;;7.17;4.77;;;;;;;;;;4957304;28;20352;-76
2022/06/29 04:24:35;;;;;;;5.67;5.17;;;;;;;;;;4956911;28;20281;-76
2022/06/29 04:27:03;;;;;;;6.47;5.20;;;;;;;;;;4956595;28;20265;-76
2022/06/29 04:29:32;;;;;;;7.10;4.57;;;;;;;;;;4957094;28;20210;-76
2022/06/29 04:32:01;;;;;;;5.77;5.00;;;;;;;;;;4957023;28;20198;-76
2022/06/29 04:34:30;;;;;;;8.13;5.50;;;;;;;;;;4956871;28;20257;-76
2022/06/29 04:36:59;;;;;;;6.50;4.80;;;;;;;;;;4956989;28;20218;-76
2022/06/29 04:39:27;;;;;;;5.00;4.30;;;;;;;;;;4957080;28;20218;-76
2022/06/29 04:41:55;;;;;;;7.27;4.50;;;;;;;;;;4955783;28;20207;-76
2022/06/29 04:44:25;;;;;;;7.77;4.33;;;;;;;;;;4956795;28;20234;-76
2022/06/29 04:46:54;;;;;;;9.03;3.80;;;;;;;;;;4956810;28;20219;-76
2022/06/29 04:49:24;;;;;;;8.23;3.80;;;;;;;;;;4956760;28;20273;-76
2022/06/29 04:51:53;;;;;;;5.97;4.00;;;;;;;;;;4956643;28;20214;-76
2022/06/29 04:54:21;;;;;;;7.30;3.93;;;;;;;;;;4956319;28;20277;-76
2022/06/29 04:56:49;;;;;;;3.53;3.23;;;;;;;;;;4956273;28;20735;-75
2022/06/29 04:59:19;;;;;;;4.70;3.30;;;;;;;;;;4956536;28;20699;-75
2022/06/29 05:01:48;;;;;;;3.27;2.97;;;;;;;;;;4956622;28;20265;-76
2022/06/29 05:04:17;;;;;;;3.33;3.03;;;;;;;;;;4956396;28;20235;-75
2022/06/29 05:06:46;;;;;;;4.10;2.93;;;;;;;;;;4956320;28;20268;-76
2022/06/29 05:09:15;;;;;;;6.03;3.40;;;;;;;;;;4957492;28;20581;-76
2022/06/29 05:11:44;;;;;;;5.73;3.20;;;;;;;;;;4955996;28;20210;-76
2022/06/29 05:14:12;;;;;;;3.90;2.90;;;;;;;;;;4956268;28;20325;-75
2022/06/29 05:16:41;;;;;;;5.73;3.30;;;;;;;;;;4956151;28;20211;-75
2022/06/29 05:19:09;;;;;;;3.77;3.00;;;;;;;;;;4956041;28;20226;-75
2022/06/29 05:21:37;;;;;;;3.77;3.07;;;;;;;;;;4956113;28;20206;-75
2022/06/29 05:24:08;;;;;;;3.63;3.33;;;;;;;;;;4955306;28;20206;-76
2022/06/29 05:26:39;;;;;;;4.10;2.87;;;;;;;;;;4936965;29;20219;-75
2022/06/29 05:29:08;;;;;;;3.40;3.10;;;;;;;;;;4936904;29;20239;-76
2022/06/29 05:31:36;;;;;;;5.13;3.00;;;;;;;;;;4937238;29;20210;-75
2022/06/29 05:34:05;;;;;;;4.23;2.93;;;;;;;;;;4936540;29;20215;-75
2022/06/29 05:36:33;;;;;;;3.40;2.93;;;;;;;;;;4937001;29;20199;-76
2022/06/29 05:39:02;;;;;;;3.97;2.90;;;;;;;;;;4939633;29;20202;-76
2022/06/29 05:41:31;;;;;;;5.13;3.10;;;;;;;;;;4936873;28;20211;-75
2022/06/29 05:44:01;;;;;;;3.63;2.67;;;;;;;;;;4936934;29;20258;-75
2022/06/29 05:46:30;;;;;;;4.47;3.10;;;;;;;;;;4936418;29;20211;-75
2022/06/29 05:48:58;;;;;;;4.03;3.05;;;;;;;;;;4937713;29;20218;-75
2022/06/29 05:51:27;;;;;;;8.05;3.25;;;;;;;;;;4955622;28;20218;-75
2022/06/29 05:53:55;;;;;;;3.15;2.80;;;;;;;;;;4954911;28;20662;-75
2022/06/29 05:56:24;;;;;;;3.78;2.95;;;;;;;;;;4955437;28;20202;-76
2022/06/29 05:58:53;;;;;;;3.40;2.80;;;;;;;;;;4955671;28;20206;-75
2022/06/29 06:01:22;;;;;;;5.07;3.08;;;;;;;;;;4955483;28;20304;-76
2022/06/29 06:03:50;;;;;;;5.03;2.90;;;;;;;;;;4955762;28;20210;-76
2022/06/29 06:06:19;;;;;;;6.78;3.20;;;;;;;;;;4955231;29;20214;-75
2022/06/29 06:08:47;;;;;;;3.13;2.92;;;;;;;;;;4954497;29;20202;-75
2022/06/29 06:11:16;;;;;;;5.18;2.78;;;;;;;;;;4955338;29;20214;-75
2022/06/29 06:13:44;;;;;;;3.70;2.70;;;;;;;;;;4955170;28;20624;-75
2022/06/29 06:16:14;;;;;;;4.00;2.83;;;;;;;;;;4955245;28;20230;-75
2022/06/29 06:19:02;;;;;;;4.22;2.95;;;;;;;;;;4955646;28;20630;-76
2022/06/29 06:21:31;;;;;;;3.83;3.00;;;;;;;;;;4955085;28;20229;-75
2022/06/29 06:23:59;;;;;;;5.38;2.70;;;;;;;;;;4954337;28;20207;-75
2022/06/29 06:26:28;;;;;;;4.63;2.90;;;;;;;;;;4954814;28;20604;-76
2022/06/29 06:28:56;;;;;;;3.50;2.60;;;;;;;;;;4955298;28;20742;-75
2022/06/29 06:31:26;;;;;;;2.90;2.60;;;;;;;;;;4955162;28;20203;-75
2022/06/29 06:33:55;;;;;;;4.97;2.60;;;;;;;;;;4955009;29;20671;-75
2022/06/29 06:36:23;;;;;;;3.00;2.50;;;;;;;;;;4954819;29;20214;-76
2022/06/29 06:38:52;;;;;;;3.10;2.58;;;;;;;;;;4954090;28;20207;-75
2022/06/29 06:41:22;;;;;;;4.97;2.63;;;;;;;;;;4955249;28;20218;-75
2022/06/29 06:43:51;;;;;;;4.63;2.70;;;;;;;;;;4955069;29;20206;-75
2022/06/29 06:46:20;;;;;;;2.85;2.60;;;;;;;;;;4954250;28;20211;-75
2022/06/29 06:48:50;;;;;;;8.23;2.80;;;;;;;;;;4955195;29;20214;-75
2022/06/29 06:51:19;;;;;;;4.22;2.35;;;;;;;;;;4935553;29;20215;-75
2022/06/29 06:53:48;;;;;;;2.20;1.92;;;;;;;;;;4935638;29;20214;-75
2022/06/29 06:56:16;;;;;;;3.25;2.15;;;;;;;;;;4951653;29;20292;-75
2022/06/29 06:58:45;;;;;;;3.72;2.28;;;;;;;;;;4954958;28;20270;-75
2022/06/29 07:01:21;;;;;;;2.20;2.00;;;;;;;;;;4954706;29;20671;-75
2022/06/29 07:03:51;;;;;;;4.35;2.50;;;;;;;;;;4954964;28;20265;-75
2022/06/29 07:06:19;;;;;;;4.43;2.30;;;;;;;;;;4954642;28;20210;-74
2022/06/29 07:08:49;;;;;;;2.40;1.90;;;;;;;;;;4954808;28;20202;-75
2022/06/29 07:11:18;;;;;;;4.65;2.28;;;;;;;;;;4955135;28;20617;-75
2022/06/29 07:13:46;;;;;;;2.65;2.38;;;;;;;;;;4954734;28;20671;-75
2022/06/29 07:16:15;;;;;;;3.08;2.35;;;;;;;;;;4953311;28;20237;-75
2022/06/29 07:18:44;;;;;;;3.00;2.17;;;;;;;;;;4954974;28;20277;-75
2022/06/29 07:21:13;;;;;;;2.63;1.92;;;;;;;;;;4954791;28;20590;-75
2022/06/29 07:23:42;;;;;;;6.35;2.20;;;;;;;;;;4954608;28;20206;-75
2022/06/29 07:26:10;;;;;;;5.72;2.10;;;;;;;;;;4954458;28;20645;-75
2022/06/29 07:28:40;;;;;;;4.97;2.20;;;;;;;;;;4954498;28;20214;-75
2022/06/29 07:31:08;;;;;;;4.50;2.40;;;;;;;;;;4954002;28;20202;-74
2022/06/29 07:33:37;;;;;;;2.95;1.98;;;;;;;;;;4954592;29;20273;-75
2022/06/29 07:36:06;;;;;;;2.40;2.20;;;;;;;;;;4953535;28;20230;-75
2022/06/29 07:38:36;;;;;;;3.90;2.30;;;;;;;;;;4957443;28;20214;-75
2022/06/29 07:41:05;;;;;;;3.65;2.38;;;;;;;;;;4957772;29;20277;-75
2022/06/29 07:43:33;;;;;;;2.90;2.10;;;;;;;;;;4958468;28;20665;-75
2022/06/29 07:46:02;;;;;;;4.47;2.30;;;;;;;;;;4957824;29;20285;-75
2022/06/29 07:48:30;;;;;;;3.53;2.05;;;;;;;;;;4957806;28;20641;-75
2022/06/29 07:50:59;;;;;;;5.25;2.15;;;;;;;;;;4957311;28;20214;-75
2022/06/29 07:53:27;;;;;;;3.22;2.33;;;;;;;;;;4957724;28;20587;-75
2022/06/29 07:55:57;;;;;;;3.33;2.20;;;;;;;;;;4958128;28;20289;-75
2022/06/29 07:58:26;;;;;;;3.60;2.30;;;;;;;;;;4958424;28;20199;-75
2022/06/29 08:00:54;;;;;;;3.60;2.22;;;;;;;;;;4957893;28;20281;-75
2022/06/29 08:03:23;;;;;;;4.47;2.20;;;;;;;;;;4956823;28;20273;-74
2022/06/29 08:05:52;;;;;;;3.30;2.47;;;;;;;;;;4957365;28;20711;-74
2022/06/29 08:08:20;;;;;;;3.60;2.33;;;;;;;;;;4957142;28;20206;-75
2022/06/29 08:10:48;;;;;;;2.47;2.13;;;;;;;;;;4957451;29;20198;-75
2022/06/29 08:13:18;;;;;;;4.82;2.13;;;;;;;;;;4957712;29;20207;-75
2022/06/29 08:15:47;;;;;;;3.53;2.20;;;;;;;;;;4957200;28;20226;-75
2022/06/29 08:18:15;;;;;;;2.72;2.40;;;;;;;;;;4956823;29;20198;-75
2022/06/29 08:20:44;;;;;;;3.80;2.08;;;;;;;;;;4957017;28;20233;-75
2022/06/29 08:23:12;;;;;;;4.00;1.90;;;;;;;;;;4957214;28;20234;-75
2022/06/29 08:25:41;;;;;;;5.35;2.40;;;;;;;;;;4956972;28;20273;-75
2022/06/29 08:28:31;;;;;;;2.45;2.10;;;;;;;;;;4957061;28;20199;-75
2022/06/29 08:30:59;;;;;;;2.65;2.20;;;;;;;;;;4956976;28;20198;-75
2022/06/29 08:33:28;;;;;;;3.25;2.67;;;;;;;;;;4956368;28;20556;-76
2022/06/29 08:35:56;;;;;;;3.47;2.45;;;;;;;;;;4956833;28;20230;-75
2022/06/29 08:38:26;;;;;;;4.70;2.33;;;;;;;;;;4956935;28;20210;-75
2022/06/29 08:40:55;;;;;;;2.50;2.22;;;;;;;;;;4957190;28;20231;-75
2022/06/29 08:43:23;;;;;;;3.95;2.30;;;;;;;;;;4956830;28;20562;-75
2022/06/29 08:45:54;;;;;;;2.60;2.40;;;;;;;;;;4955239;28;20226;-76
2022/06/29 08:48:22;;;;;;;4.03;2.38;;;;;;;;;;4956638;28;20639;-74
2022/06/29 08:50:52;;;;;;;4.05;2.60;;;;;;;;;;4956656;29;20218;-75
2022/06/29 08:53:20;;;;;;;4.10;2.80;;;;;;;;;;4956381;28;20214;-75
2022/06/29 08:55:49;;;;;;;5.90;2.60;;;;;;;;;;4956378;29;20758;-75
2022/06/29 08:58:19;;;;;;;4.03;2.78;;;;;;;;;;4956309;28;20265;-75
2022/06/29 09:00:49;;;;;;;5.65;2.80;;;;;;;;;;4955666;28;20409;-75
2022/06/29 09:03:19;;;;;;;4.90;2.80;;;;;;;;;;4956593;29;20213;-75
2022/06/29 09:05:49;;;;;;;4.00;2.88;;;;;;;;;;4956364;28;20774;-75
2022/06/29 09:08:17;;;;;;;3.75;3.20;;;;;;;;;;4956298;29;20257;-76
2022/06/29 09:10:45;;;;;;;4.00;3.33;;;;;;;;;;4956585;28;20209;-75
2022/06/29 09:13:19;;;;;;;3.30;3.00;;;;;;;;;;4955204;28;20261;-75
2022/06/29 09:15:48;;;;;;;3.22;2.88;;;;;;;;;;4955732;29;20242;-75
2022/06/29 09:18:25;;;;;;;3.60;3.00;;;;;;;;;;4954749;28;20206;-75
2022/06/29 09:20:54;;;;;;;3.88;2.92;;;;;;;;;;4956053;28;20211;-75
2022/06/29 09:23:23;;;;;;;4.07;3.05;;;;;;;;;;4955901;28;20209;-75
2022/06/29 09:25:52;;;;;;;3.83;3.08;;;;;;;;;;4956054;28;20230;-75
2022/06/29 09:28:21;;;;;;;3.40;3.10;;;;;;;;;;4956076;28;20202;-75
2022/06/29 09:30:49;;;;;;;4.43;2.95;;;;;;;;;;4955941;28;20580;-75
2022/06/29 09:33:18;;;;;;;5.78;3.50;;;;;;;;;;4955208;28;20261;-75
2022/06/29 09:36:04;;;;;;;5.85;3.40;;;;;;;;;;4955801;28;20600;-75
2022/06/29 09:38:32;;;;;;;4.57;3.90;;;;;;;;;;4955413;28;20211;-75
2022/06/29 09:41:02;;;;;;;4.13;3.40;;;;;;;;;;4955820;28;20565;-75
2022/06/29 09:43:31;;;;;;;5.43;3.42;;;;;;;;;;4955412;28;20230;-75
2022/06/29 09:46:00;;;;;;;3.70;3.30;;;;;;;;;;4956308;28;20226;-76
2022/06/29 09:48:30;;;;;;;4.00;3.70;;;;;;;;;;4964070;28;20622;-76
2022/06/29 09:51:01;;;;;;;4.20;3.80;;;;;;;;;;4966960;28;20222;-75
2022/06/29 09:53:37;;;;;;;3.78;3.45;;;;;;;;;;4973379;28;20220;-75
2022/06/29 09:56:07;;;;;;;4.75;3.55;;;;;;;;;;4974419;28;20226;-75
2022/06/29 09:58:38;;;;;;;4.00;3.58;;;;;;;;;;4973686;28;20297;-76
2022/06/29 10:03:55;;;;;;;4.03;3.60;;;;;;;;;;4955318;28;20297;-76
2022/06/29 10:06:26;;;;;;;5.07;3.95;;;;;;;;;;4955299;28;20297;-75
2022/06/29 10:09:02;;;;;;;4.25;3.95;;;;;;;;;;4955102;29;20293;-76
2022/06/29 10:14:28;;;;;;;3.80;3.50;;;;;;;;;;4955068;28;20230;-75
2022/06/29 10:17:01;;;;;;;5.43;3.72;;;;;;;;;;4954726;28;20206;-76
2022/06/29 10:19:35;;;;;;;4.32;3.72;;;;;;;;;;4955101;29;20216;-75
2022/06/29 10:22:06;;;;;;;4.80;4.00;;;;;;;;;;4955050;28;20277;-75
2022/06/29 10:24:37;;;;;;;4.75;3.78;;;;;;;;;;4955466;28;20222;-75
2022/06/29 10:27:09;;;;;;;3.85;3.55;;;;;;;;;;4958509;28;20190;-74
2022/06/29 10:29:38;;;;;;;3.70;3.40;;;;;;;;;;4954807;28;20210;-74
2022/06/29 10:32:07;;;;;;;4.88;3.45;;;;;;;;;;4954534;28;20207;-73
2022/06/29 10:35:06;;;;;;;3.65;3.40;;;;;;;;;;4954528;29;20230;-74
2022/06/29 10:37:32;;;;;;;3.47;3.28;;;;;;;;;;4954850;28;20214;-74
2022/06/29 10:40:04;;;;;;;3.13;2.90;;;;;;;;;;4955024;29;20269;-74
2022/06/29 10:45:26;;;;;;;3.30;3.10;;;;;;;;;;4955539;28;20227;-74
2022/06/29 10:48:12;;;;;;;3.38;3.17;;;;;;;;;;4954365;28;20198;-73
2022/06/29 10:50:41;;;;;;;3.30;3.03;;;;;;;;;;4954792;28;20306;-73
2022/06/29 10:53:12;;;;;;;3.38;3.08;;;;;;;;;;4954728;28;20202;-73
2022/06/29 10:55:42;;;;;;;3.25;2.95;;;;;;;;;;4954678;29;20313;-73
2022/06/29 10:58:11;;;;;;;3.47;3.17;;;;;;;;;;4954809;28;20748;-73
2022/06/29 11:00:41;;;;;;;3.00;2.70;;;;;;;;;;4953995;28;20245;-73
2022/06/29 11:03:12;;;;;;;2.72;2.50;;;;;;;;;;4954208;29;20703;-73
2022/06/29 11:12:01;;;;;;;3.30;2.90;;;;;;;;;;4954559;28;20289;-73
2022/06/29 11:15:39;;;;;;;3.65;2.45;;;;;;;;;;4958233;28;20265;-73
2022/06/29 11:16:57;;;;;;;3.00;2.80;;;;;;;;;;4956741;28;20273;-74
2022/06/29 11:19:31;;;;;;;2.80;2.60;;;;;;;;;;4958417;28;20202;-73
2022/06/29 11:22:15;;;;;;;2.90;2.70;;;;;;;;;;4958089;28;20202;-73
2022/06/29 11:24:55;;;;;;;3.33;2.80;;;;;;;;;;4958461;28;20265;-73
2022/06/29 11:27:35;;;;;;;2.92;2.70;;;;;;;;;;4958320;28;20206;-74
2022/06/29 11:30:05;;;;;;;3.15;2.60;;;;;;;;;;4958301;28;20210;-73
2022/06/29 11:32:43;;;;;;;2.83;2.47;;;;;;;;;;4957427;28;20277;-74
2022/06/29 11:35:12;;;;;;;4.68;2.95;;;;;;;;;;4958106;29;20241;-74
2022/06/29 11:37:47;;;;;;;2.92;2.70;;;;;;;;;;4958354;28;20222;-73
2022/06/29 11:40:19;;;;;;;3.00;2.70;;;;;;;;;;4957975;29;20201;-73
2022/06/29 11:43:05;;;;;;;3.03;2.50;;;;;;;;;;4957711;29;20296;-73
2022/06/29 11:45:41;;;;;;;2.90;2.70;;;;;;;;;;4957870;28;20611;-73
2022/06/29 11:48:12;;;;;;;3.22;2.88;;;;;;;;;;4955134;29;20206;-74
2022/06/29 11:50:51;;;;;;;3.17;2.97;;;;;;;;;;4957636;28;20226;-74
2022/06/29 11:53:43;;;;;;;5.32;3.15;;;;;;;;;;4957541;28;20233;-74
2022/06/29 11:56:13;;;;;;;6.40;3.20;;;;;;;;;;4957753;28;20222;-74
2022/06/29 11:58:43;;;;;;;4.00;3.10;;;;;;;;;;4957701;28;20214;-74
2022/06/29 12:01:13;;;;;;;4.45;3.17;;;;;;;;;;4958330;28;20206;-74
2022/06/29 12:03:48;;;;;;;3.42;3.05;;;;;;;;;;4956793;28;20237;-75
2022/06/29 12:06:17;;;;;;;4.03;3.10;;;;;;;;;;4957591;29;20345;-74
2022/06/29 12:08:45;;;;;;;5.18;3.22;;;;;;;;;;4957718;29;20603;-74
2022/06/29 12:11:15;;;;;;;5.13;3.30;;;;;;;;;;4957813;28;20281;-74
2022/06/29 12:13:44;;;;;;;3.30;3.05;;;;;;;;;;4957415;28;20206;-74
2022/06/29 12:16:12;;;;;;;3.72;3.40;;;;;;;;;;4957312;28;20753;-74
2022/06/29 12:18:41;;;;;;;4.70;3.10;;;;;;;;;;4956682;29;20203;-74
2022/06/29 12:21:10;;;;;;;4.00;3.10;;;;;;;;;;4957252;28;20215;-74
2022/06/29 12:23:39;;;;;;;3.40;3.05;;;;;;;;;;4957084;28;20749;-74
2022/06/29 12:26:08;;;;;;;3.17;2.88;;;;;;;;;;4956995;28;20638;-74
2022/06/29 12:28:38;;;;;;;3.78;3.03;;;;;;;;;;4956987;28;20206;-74
2022/06/29 12:31:07;;;;;;;3.72;3.13;;;;;;;;;;4956752;28;20210;-75
2022/06/29 12:33:35;;;;;;;4.20;2.90;;;;;;;;;;4957253;28;20217;-74
2022/06/29 12:36:04;;;;;;;8.50;3.55;;;;;;;;;;4956954;29;20226;-74
2022/06/29 12:38:32;;;;;;;3.67;3.35;;;;;;;;;;4957005;28;20667;-74
2022/06/29 12:41:01;;;;;;;3.58;3.15;;;;;;;;;;4956922;29;20268;-75
2022/06/29 12:43:30;;;;;;;3.22;3.03;;;;;;;;;;4956741;28;20227;-75
2022/06/29 12:46:01;;;;;;;6.25;3.60;;;;;;;;;;4955694;28;20233;-75
2022/06/29 12:48:29;;;;;;;4.38;3.28;;;;;;;;;;4957270;29;20286;-75
2022/06/29 12:50:58;;;;;;;3.58;2.95;;;;;;;;;;4956531;29;20214;-75
2022/06/29 12:53:27;;;;;;;3.35;3.05;;;;;;;;;;4956483;28;20226;-75
2022/06/29 12:55:56;;;;;;;4.60;3.22;;;;;;;;;;4956591;28;20226;-75
2022/06/29 12:58:24;;;;;;;3.03;2.83;;;;;;;;;;4954887;28;20202;-75
2022/06/29 13:00:53;;;;;;;4.00;3.22;;;;;;;;;;4953041;28;20207;-75
2022/06/29 13:03:23;;;;;;;3.42;3.13;;;;;;;;;;4953431;28;20222;-75
2022/06/29 13:05:51;;;;;;;3.67;3.17;;;;;;;;;;4953319;28;20234;-74
2022/06/29 13:08:20;;;;;;;4.43;3.25;;;;;;;;;;4953563;28;20210;-75
2022/06/29 13:10:49;;;;;;;4.75;2.90;;;;;;;;;;4953782;28;20221;-75
2022/06/29 13:13:17;;;;;;;4.63;3.22;;;;;;;;;;4953647;28;20667;-75
2022/06/29 13:15:45;;;;;;;3.50;2.88;;;;;;;;;;4956806;28;20633;-79
2022/06/29 13:18:15;;;;;;;4.55;3.00;;;;;;;;;;4957085;28;20230;-78
2022/06/29 13:20:44;;;;;;;4.40;2.80;;;;;;;;;;4941343;28;20218;-78
2022/06/29 13:23:14;;;;;;;3.20;2.90;;;;;;;;;;4937920;29;20730;-78
2022/06/29 13:25:43;;;;;;;3.67;2.75;;;;;;;;;;4938079;29;20227;-79
2022/06/29 13:28:11;;;;;;;4.07;2.58;;;;;;;;;;4937680;29;20270;-79
2022/06/29 13:30:40;;;;;;;4.50;3.10;;;;;;;;;;4946552;29;20199;-78
2022/06/29 13:33:09;;;;;;;3.17;2.75;;;;;;;;;;4956122;28;20214;-78
2022/06/29 13:35:37;;;;;;;2.83;2.60;;;;;;;;;;4955256;28;20229;-79
2022/06/29 13:38:07;;;;;;;3.50;2.67;;;;;;;;;;4956378;28;20218;-78
2022/06/29 13:40:36;;;;;;;3.05;2.75;;;;;;;;;;4955998;28;20552;-79
2022/06/29 13:43:04;;;;;;;2.78;2.58;;;;;;;;;;4953725;28;20258;-78
2022/06/29 13:45:34;;;;;;;5.53;2.78;;;;;;;;;;4942734;28;20242;-78
2022/06/29 13:48:03;;;;;;;2.65;2.45;;;;;;;;;;4934500;29;20207;-78
2022/06/29 13:50:32;;;;;;;2.80;2.60;;;;;;;;;;4949850;28;20314;-79
2022/06/29 13:53:00;;;;;;;3.55;2.67;;;;;;;;;;4956745;28;20252;-80
2022/06/29 13:55:30;;;;;;;2.80;2.60;;;;;;;;;;4955804;28;20225;-80
2022/06/29 13:57:59;;;;;;;4.60;2.42;;;;;;;;;;4613520;28;10000399;-78
2022/06/29 14:00:27;;;;;;;2.75;2.55;;;;;;;;;;4955214;28;20211;-80
2022/06/29 14:02:56;;;;;;;3.75;2.60;;;;;;;;;;4955387;28;20213;-79
2022/06/29 14:05:24;;;;;;;2.53;2.33;;;;;;;;;;4956001;29;20230;-80
2022/06/29 14:07:52;;;;;;;3.22;2.40;;;;;;;;;;4955089;29;20206;-79
2022/06/29 14:10:42;;;;;;;4.82;2.50;;;;;;;;;;4956170;28;20757;-79
2022/06/29 14:13:11;;;;;;;3.25;2.33;;;;;;;;;;4955523;28;20218;-78
2022/06/29 14:15:40;;;;;;;2.47;2.28;;;;;;;;;;4955904;29;20277;-79
2022/06/29 14:18:08;;;;;;;3.75;2.42;;;;;;;;;;4956478;28;20210;-78
2022/06/29 14:20:38;;;;;;;3.70;2.30;;;;;;;;;;4955404;29;20221;-78
2022/06/29 14:23:06;;;;;;;2.50;2.30;;;;;;;;;;4956484;28;20210;-80
2022/06/29 14:25:35;;;;;;;2.60;2.40;;;;;;;;;;4958374;28;20230;-79
2022/06/29 14:28:05;;;;;;;2.47;2.28;;;;;;;;;;4957575;28;20237;-79
2022/06/29 14:30:34;;;;;;;3.33;2.40;;;;;;;;;;4956064;28;20245;-80
2022/06/29 14:33:02;;;;;;;2.58;2.38;;;;;;;;;;4958721;29;20210;-80
2022/06/29 14:35:30;;;;;;;2.50;2.35;;;;;;;;;;4958486;28;20227;-78
2022/06/29 14:38:01;;;;;;;3.00;2.30;;;;;;;;;;4956373;28;20242;-79
2022/06/29 14:40:29;;;;;;;2.65;2.38;;;;;;;;;;4957139;28;20191;-79
2022/06/29 14:42:58;;;;;;;3.35;2.53;;;;;;;;;;4955514;29;20202;-79
2022/06/29 14:45:28;;;;;;;2.30;2.10;;;;;;;;;;4957012;28;20300;-79
2022/06/29 14:47:56;;;;;;;2.40;2.15;;;;;;;;;;4959651;29;20277;-79
2022/06/29 14:50:25;;;;;;;1.98;1.88;;;;;;;;;;4959646;28;20218;-78
2022/06/29 14:52:53;;;;;;;3.33;2.40;;;;;;;;;;4958923;28;20206;-79
2022/06/29 14:55:22;;;;;;;3.25;2.58;;;;;;;;;;4960913;28;20218;-79
2022/06/29 14:57:50;;;;;;;3.58;2.15;;;;;;;;;;4959527;28;20257;-79
2022/06/29 15:00:19;;;;;;;2.70;2.50;;;;;;;;;;4959400;29;20561;-79
2022/06/29 15:02:49;;;;;;;2.85;2.15;;;;;;;;;;4959859;28;20206;-79
2022/06/29 15:05:18;;;;;;;2.53;2.33;;;;;;;;;;4959932;28;20366;-79
2022/06/29 15:07:46;;;;;;;2.72;2.33;;;;;;;;;;4960016;29;20213;-79
2022/06/29 15:10:14;;;;;;;4.40;2.28;;;;;;;;;;4959043;28;20213;-80
2022/06/29 15:12:43;;;;;;;2.30;2.10;;;;;;;;;;4958872;28;20210;-79
2022/06/29 15:15:11;;;;;;;3.55;2.10;;;;;;;;;;4959414;28;20227;-79